sensor_id;sensor_type;location;lat;lon;timestamp;temperature;humidity
25504;DHT22;13410;52.114;5.718;2023-12-22T00:01:06;10.40;99.90
25504;DHT22;13410;52.114;5.718;2023-12-22T00:03:32;10.20;99.90
25504;DHT22;13410;52.114;5.718;2023-12-22T00:05:58;10.40;99.90
25504;DHT22;13410;52.114;5.718;2023-12-22T00:08:23;10.30;99.90
25504;DHT22;13410;52.114;5.718;2023-12-22T00:10:50;10.30;99.90
25504;DHT22;13410;52.114;5.718;2023-12-22T00:13:15;10.20;99.90
25504;DHT22;13410;52.114;5.718;2023-12-22T00:15:41;10.20;99.90
25504;DHT22;13410;52.114;5.718;2023-12-22T00:18:08;10.30;99.90
25504;DHT22;13410;52.114;5.718;2023-12-22T00:20:34;10.40;99.90
25504;DHT22;13410;52.114;5.718;2023-12-22T00:22:59;10.30;99.90
25504;DHT22;13410;52.114;5.718;2023-12-22T00:25:25;9.80;99.90
25504;DHT22;13410;52.114;5.718;2023-12-22T00:27:51;9.40;99.90
25504;DHT22;13410;52.114;5.718;2023-12-22T00:30:17;9.30;99.90
25504;DHT22;13410;52.114;5.718;2023-12-22T00:32:43;9.40;99.90
25504;DHT22;13410;52.114;5.718;2023-12-22T00:35:08;9.30;99.90
25504;DHT22;13410;52.114;5.718;2023-12-22T00:37:34;9.10;99.90
25504;DHT22;13410;52.114;5.718;2023-12-22T00:40:00;8.90;99.90
25504;DHT22;13410;52.114;5.718;2023-12-22T00:42:26;9.00;99.90
25504;DHT22;13410;52.114;5.718;2023-12-22T00:44:51;9.00;99.90
25504;DHT22;13410;52.114;5.718;2023-12-22T00:47:17;9.20;99.90
25504;DHT22;13410;52.114;5.718;2023-12-22T00:49:43;9.20;99.90
25504;DHT22;13410;52.114;5.718;2023-12-22T00:52:09;9.40;99.90
25504;DHT22;13410;52.114;5.718;2023-12-22T00:54:34;9.40;99.90
25504;DHT22;13410;52.114;5.718;2023-12-22T00:57:00;9.40;99.90
25504;DHT22;13410;52.114;5.718;2023-12-22T00:59:25;9.30;99.90
25504;DHT22;13410;52.114;5.718;2023-12-22T01:01:51;9.20;99.90
25504;DHT22;13410;52.114;5.718;2023-12-22T01:04:17;9.20;99.90
25504;DHT22;13410;52.114;5.718;2023-12-22T01:06:42;9.30;99.90
25504;DHT22;13410;52.114;5.718;2023-12-22T01:09:08;9.10;99.90
25504;DHT22;13410;52.114;5.718;2023-12-22T01:11:34;9.10;99.90
25504;DHT22;13410;52.114;5.718;2023-12-22T01:14:00;8.90;99.90
25504;DHT22;13410;52.114;5.718;2023-12-22T01:16:25;8.70;99.90
25504;DHT22;13410;52.114;5.718;2023-12-22T01:18:51;8.70;99.90
25504;DHT22;13410;52.114;5.718;2023-12-22T01:21:17;8.50;99.90
25504;DHT22;13410;52.114;5.718;2023-12-22T01:23:43;8.70;99.90
25504;DHT22;13410;52.114;5.718;2023-12-22T01:26:08;8.80;99.90
25504;DHT22;13410;52.114;5.718;2023-12-22T01:28:35;8.80;99.90
25504;DHT22;13410;52.114;5.718;2023-12-22T01:31:01;8.80;99.90
25504;DHT22;13410;52.114;5.718;2023-12-22T01:33:26;9.00;99.90
25504;DHT22;13410;52.114;5.718;2023-12-22T01:35:52;9.00;99.90
25504;DHT22;13410;52.114;5.718;2023-12-22T01:38:18;9.00;99.90
25504;DHT22;13410;52.114;5.718;2023-12-22T01:40:44;9.00;99.90
25504;DHT22;13410;52.114;5.718;2023-12-22T01:43:10;9.10;99.90
25504;DHT22;13410;52.114;5.718;2023-12-22T01:45:35;9.10;99.90
25504;DHT22;13410;52.114;5.718;2023-12-22T01:48:01;9.10;99.90
25504;DHT22;13410;52.114;5.718;2023-12-22T01:50:28;8.90;99.90
25504;DHT22;13410;52.114;5.718;2023-12-22T01:52:54;9.10;99.90
25504;DHT22;13410;52.114;5.718;2023-12-22T01:55:20;9.30;99.90
25504;DHT22;13410;52.114;5.718;2023-12-22T01:57:46;9.30;99.90
25504;DHT22;13410;52.114;5.718;2023-12-22T02:00:13;9.30;99.90
25504;DHT22;13410;52.114;5.718;2023-12-22T02:02:40;9.50;99.90
25504;DHT22;13410;52.114;5.718;2023-12-22T02:05:08;9.60;99.90
25504;DHT22;13410;52.114;5.718;2023-12-22T02:07:38;9.50;99.90
25504;DHT22;13410;52.114;5.718;2023-12-22T02:10:06;9.60;99.90
25504;DHT22;13410;52.114;5.718;2023-12-22T02:12:32;9.50;99.90
25504;DHT22;13410;52.114;5.718;2023-12-22T02:14:58;9.70;99.90
25504;DHT22;13410;52.114;5.718;2023-12-22T02:20:16;9.60;99.90
25504;DHT22;13410;52.114;5.718;2023-12-22T02:22:42;9.60;99.90
25504;DHT22;13410;52.114;5.718;2023-12-22T02:25:08;9.70;99.90
25504;DHT22;13410;52.114;5.718;2023-12-22T02:32:50;9.80;99.90
25504;DHT22;13410;52.114;5.718;2023-12-22T02:35:20;10.10;99.90
25504;DHT22;13410;52.114;5.718;2023-12-22T02:37:47;10.20;99.90
25504;DHT22;13410;52.114;5.718;2023-12-22T02:40:14;10.30;99.90
25504;DHT22;13410;52.114;5.718;2023-12-22T02:42:41;10.50;99.90
25504;DHT22;13410;52.114;5.718;2023-12-22T02:45:16;10.50;99.90
25504;DHT22;13410;52.114;5.718;2023-12-22T02:47:42;10.50;99.90
25504;DHT22;13410;52.114;5.718;2023-12-22T02:50:08;10.50;99.90
25504;DHT22;13410;52.114;5.718;2023-12-22T02:52:37;10.60;99.90
25504;DHT22;13410;52.114;5.718;2023-12-22T02:55:03;10.70;99.90
25504;DHT22;13410;52.114;5.718;2023-12-22T02:57:29;10.70;99.90
25504;DHT22;13410;52.114;5.718;2023-12-22T02:59:54;10.70;99.90
25504;DHT22;13410;52.114;5.718;2023-12-22T03:02:20;10.60;99.90
25504;DHT22;13410;52.114;5.718;2023-12-22T03:04:46;10.30;99.90
25504;DHT22;13410;52.114;5.718;2023-12-22T03:07:12;9.10;99.90
25504;DHT22;13410;52.114;5.718;2023-12-22T03:09:38;7.90;99.90
25504;DHT22;13410;52.114;5.718;2023-12-22T03:12:04;7.00;99.90
25504;DHT22;13410;52.114;5.718;2023-12-22T03:14:30;6.60;99.90
25504;DHT22;13410;52.114;5.718;2023-12-22T03:17:05;6.60;99.90
25504;DHT22;13410;52.114;5.718;2023-12-22T03:19:32;6.60;99.90
25504;DHT22;13410;52.114;5.718;2023-12-22T03:21:58;6.60;99.90
25504;DHT22;13410;52.114;5.718;2023-12-22T03:24:24;6.60;99.90
25504;DHT22;13410;52.114;5.718;2023-12-22T03:26:50;6.90;99.90
25504;DHT22;13410;52.114;5.718;2023-12-22T03:29:16;7.00;99.90
25504;DHT22;13410;52.114;5.718;2023-12-22T03:31:43;7.10;99.90
25504;DHT22;13410;52.114;5.718;2023-12-22T03:34:08;7.10;99.90
25504;DHT22;13410;52.114;5.718;2023-12-22T03:36:34;7.10;99.90
25504;DHT22;13410;52.114;5.718;2023-12-22T03:38:59;7.00;99.90
25504;DHT22;13410;52.114;5.718;2023-12-22T03:41:25;6.90;99.90
25504;DHT22;13410;52.114;5.718;2023-12-22T03:43:51;6.90;99.90
25504;DHT22;13410;52.114;5.718;2023-12-22T03:46:16;6.90;99.90
25504;DHT22;13410;52.114;5.718;2023-12-22T03:48:42;7.00;99.90
25504;DHT22;13410;52.114;5.718;2023-12-22T03:51:08;7.10;99.90
25504;DHT22;13410;52.114;5.718;2023-12-22T03:53:35;7.20;99.90
25504;DHT22;13410;52.114;5.718;2023-12-22T03:56:01;7.10;99.90
25504;DHT22;13410;52.114;5.718;2023-12-22T03:58:27;7.20;99.90
25504;DHT22;13410;52.114;5.718;2023-12-22T04:00:52;7.30;99.90
25504;DHT22;13410;52.114;5.718;2023-12-22T04:03:18;7.50;99.90
25504;DHT22;13410;52.114;5.718;2023-12-22T04:05:43;7.40;99.90
25504;DHT22;13410;52.114;5.718;2023-12-22T04:08:09;7.50;99.90
25504;DHT22;13410;52.114;5.718;2023-12-22T04:10:35;7.60;99.90
25504;DHT22;13410;52.114;5.718;2023-12-22T04:13:00;7.60;99.90
25504;DHT22;13410;52.114;5.718;2023-12-22T04:15:26;7.60;99.90
25504;DHT22;13410;52.114;5.718;2023-12-22T04:17:51;7.60;99.90
25504;DHT22;13410;52.114;5.718;2023-12-22T04:20:17;7.50;99.90
25504;DHT22;13410;52.114;5.718;2023-12-22T04:22:42;7.60;99.90
25504;DHT22;13410;52.114;5.718;2023-12-22T04:25:08;7.70;99.90
25504;DHT22;13410;52.114;5.718;2023-12-22T04:27:34;7.80;99.90
25504;DHT22;13410;52.114;5.718;2023-12-22T04:30:00;7.80;99.90
25504;DHT22;13410;52.114;5.718;2023-12-22T04:32:26;7.90;99.90
25504;DHT22;13410;52.114;5.718;2023-12-22T04:34:52;8.10;99.90
25504;DHT22;13410;52.114;5.718;2023-12-22T04:37:17;8.10;99.90
25504;DHT22;13410;52.114;5.718;2023-12-22T04:39:43;8.20;99.90
25504;DHT22;13410;52.114;5.718;2023-12-22T04:42:09;8.40;99.90
25504;DHT22;13410;52.114;5.718;2023-12-22T04:44:34;8.60;99.90
25504;DHT22;13410;52.114;5.718;2023-12-22T04:47:00;8.60;99.90
25504;DHT22;13410;52.114;5.718;2023-12-22T04:49:26;8.60;99.90
25504;DHT22;13410;52.114;5.718;2023-12-22T04:51:51;8.60;99.90
25504;DHT22;13410;52.114;5.718;2023-12-22T04:54:17;8.60;99.90
25504;DHT22;13410;52.114;5.718;2023-12-22T04:56:42;8.60;99.90
25504;DHT22;13410;52.114;5.718;2023-12-22T04:59:08;8.90;99.90
25504;DHT22;13410;52.114;5.718;2023-12-22T05:01:34;8.90;99.90
25504;DHT22;13410;52.114;5.718;2023-12-22T05:04:00;8.90;99.90
25504;DHT22;13410;52.114;5.718;2023-12-22T05:06:27;8.90;99.90
25504;DHT22;13410;52.114;5.718;2023-12-22T05:08:54;9.00;99.90
25504;DHT22;13410;52.114;5.718;2023-12-22T05:11:20;9.30;99.90
25504;DHT22;13410;52.114;5.718;2023-12-22T05:13:45;9.40;99.90
25504;DHT22;13410;52.114;5.718;2023-12-22T05:16:11;9.50;99.90
25504;DHT22;13410;52.114;5.718;2023-12-22T05:18:36;9.70;99.90
25504;DHT22;13410;52.114;5.718;2023-12-22T05:21:03;10.00;99.90
25504;DHT22;13410;52.114;5.718;2023-12-22T05:23:29;10.00;99.90
25504;DHT22;13410;52.114;5.718;2023-12-22T05:25:55;10.00;99.90
25504;DHT22;13410;52.114;5.718;2023-12-22T05:28:20;10.10;99.90
25504;DHT22;13410;52.114;5.718;2023-12-22T05:30:46;10.30;99.90
25504;DHT22;13410;52.114;5.718;2023-12-22T05:33:13;10.40;99.90
25504;DHT22;13410;52.114;5.718;2023-12-22T05:35:38;10.50;99.90
25504;DHT22;13410;52.114;5.718;2023-12-22T05:38:04;10.60;99.90
25504;DHT22;13410;52.114;5.718;2023-12-22T05:40:31;10.80;99.90
25504;DHT22;13410;52.114;5.718;2023-12-22T05:42:57;10.80;99.90
25504;DHT22;13410;52.114;5.718;2023-12-22T05:45:22;10.90;99.90
25504;DHT22;13410;52.114;5.718;2023-12-22T05:47:50;11.00;99.90
25504;DHT22;13410;52.114;5.718;2023-12-22T05:50:16;11.00;99.90
25504;DHT22;13410;52.114;5.718;2023-12-22T05:52:42;11.00;99.90
25504;DHT22;13410;52.114;5.718;2023-12-22T05:55:09;11.10;99.90
25504;DHT22;13410;52.114;5.718;2023-12-22T05:57:34;11.00;99.90
25504;DHT22;13410;52.114;5.718;2023-12-22T06:00:00;11.20;99.90
25504;DHT22;13410;52.114;5.718;2023-12-22T06:02:26;11.10;99.90
25504;DHT22;13410;52.114;5.718;2023-12-22T06:04:51;11.10;99.90
25504;DHT22;13410;52.114;5.718;2023-12-22T06:07:17;11.10;99.90
25504;DHT22;13410;52.114;5.718;2023-12-22T06:09:44;11.10;99.90
25504;DHT22;13410;52.114;5.718;2023-12-22T06:12:10;11.10;99.90
25504;DHT22;13410;52.114;5.718;2023-12-22T06:14:36;11.20;99.90
25504;DHT22;13410;52.114;5.718;2023-12-22T06:17:01;11.10;99.90
25504;DHT22;13410;52.114;5.718;2023-12-22T06:19:27;11.00;99.90
25504;DHT22;13410;52.114;5.718;2023-12-22T06:21:56;10.90;99.90
25504;DHT22;13410;52.114;5.718;2023-12-22T06:24:23;10.90;99.90
25504;DHT22;13410;52.114;5.718;2023-12-22T06:26:49;10.90;99.90
25504;DHT22;13410;52.114;5.718;2023-12-22T06:29:15;10.90;99.90
25504;DHT22;13410;52.114;5.718;2023-12-22T06:31:41;10.80;99.90
25504;DHT22;13410;52.114;5.718;2023-12-22T06:34:07;10.70;99.90
25504;DHT22;13410;52.114;5.718;2023-12-22T06:36:33;10.80;99.90
25504;DHT22;13410;52.114;5.718;2023-12-22T06:38:59;10.80;99.90
25504;DHT22;13410;52.114;5.718;2023-12-22T06:41:29;11.00;99.90
25504;DHT22;13410;52.114;5.718;2023-12-22T06:43:56;10.80;99.90
25504;DHT22;13410;52.114;5.718;2023-12-22T06:46:23;10.90;99.90
25504;DHT22;13410;52.114;5.718;2023-12-22T06:48:51;10.90;99.90
25504;DHT22;13410;52.114;5.718;2023-12-22T06:51:18;10.90;99.90
25504;DHT22;13410;52.114;5.718;2023-12-22T06:53:45;11.00;99.90
25504;DHT22;13410;52.114;5.718;2023-12-22T06:56:22;11.00;99.90
25504;DHT22;13410;52.114;5.718;2023-12-22T06:58:48;11.00;99.90
25504;DHT22;13410;52.114;5.718;2023-12-22T07:01:33;11.10;99.90
25504;DHT22;13410;52.114;5.718;2023-12-22T07:04:01;11.20;99.90
25504;DHT22;13410;52.114;5.718;2023-12-22T07:06:29;11.30;99.90
25504;DHT22;13410;52.114;5.718;2023-12-22T07:11:48;11.50;99.90
25504;DHT22;13410;52.114;5.718;2023-12-22T07:14:15;11.50;99.90
25504;DHT22;13410;52.114;5.718;2023-12-22T07:16:41;11.50;99.90
25504;DHT22;13410;52.114;5.718;2023-12-22T07:19:10;11.50;99.90
25504;DHT22;13410;52.114;5.718;2023-12-22T07:21:39;11.60;99.90
25504;DHT22;13410;52.114;5.718;2023-12-22T07:24:06;11.50;99.90
25504;DHT22;13410;52.114;5.718;2023-12-22T07:26:32;11.40;99.90
25504;DHT22;13410;52.114;5.718;2023-12-22T07:28:57;11.40;99.90
25504;DHT22;13410;52.114;5.718;2023-12-22T07:31:24;11.30;99.90
25504;DHT22;13410;52.114;5.718;2023-12-22T07:33:50;11.40;99.90
25504;DHT22;13410;52.114;5.718;2023-12-22T07:36:16;11.40;99.90
25504;DHT22;13410;52.114;5.718;2023-12-22T07:38:44;11.50;99.90
25504;DHT22;13410;52.114;5.718;2023-12-22T07:41:10;11.60;99.90
25504;DHT22;13410;52.114;5.718;2023-12-22T07:43:36;11.40;99.90
25504;DHT22;13410;52.114;5.718;2023-12-22T07:46:01;11.30;99.90
25504;DHT22;13410;52.114;5.718;2023-12-22T07:48:27;11.30;99.90
25504;DHT22;13410;52.114;5.718;2023-12-22T07:50:53;11.40;99.90
25504;DHT22;13410;52.114;5.718;2023-12-22T07:53:19;11.60;99.90
25504;DHT22;13410;52.114;5.718;2023-12-22T07:55:45;11.70;99.90
25504;DHT22;13410;52.114;5.718;2023-12-22T07:58:13;11.60;99.90
25504;DHT22;13410;52.114;5.718;2023-12-22T08:00:38;11.60;99.90
25504;DHT22;13410;52.114;5.718;2023-12-22T08:03:04;11.50;99.90
25504;DHT22;13410;52.114;5.718;2023-12-22T08:05:30;11.50;99.90
25504;DHT22;13410;52.114;5.718;2023-12-22T08:07:56;11.50;99.90
25504;DHT22;13410;52.114;5.718;2023-12-22T08:10:21;11.40;99.90
25504;DHT22;13410;52.114;5.718;2023-12-22T08:12:47;11.10;99.90
25504;DHT22;13410;52.114;5.718;2023-12-22T08:15:13;10.90;99.90
25504;DHT22;13410;52.114;5.718;2023-12-22T08:17:49;10.90;99.90
25504;DHT22;13410;52.114;5.718;2023-12-22T08:20:19;10.90;99.90
25504;DHT22;13410;52.114;5.718;2023-12-22T08:22:48;10.70;99.90
25504;DHT22;13410;52.114;5.718;2023-12-22T08:25:14;10.60;99.90
25504;DHT22;13410;52.114;5.718;2023-12-22T08:27:40;10.50;99.90
25504;DHT22;13410;52.114;5.718;2023-12-22T08:30:08;10.60;99.90
25504;DHT22;13410;52.114;5.718;2023-12-22T08:32:34;10.90;99.90
25504;DHT22;13410;52.114;5.718;2023-12-22T08:34:59;11.00;99.90
25504;DHT22;13410;52.114;5.718;2023-12-22T08:37:25;11.20;99.90
25504;DHT22;13410;52.114;5.718;2023-12-22T08:39:50;11.40;99.90
25504;DHT22;13410;52.114;5.718;2023-12-22T08:42:17;11.50;99.90
25504;DHT22;13410;52.114;5.718;2023-12-22T08:44:43;11.60;99.90
25504;DHT22;13410;52.114;5.718;2023-12-22T08:47:08;11.70;99.90
25504;DHT22;13410;52.114;5.718;2023-12-22T08:49:34;11.70;99.90
25504;DHT22;13410;52.114;5.718;2023-12-22T08:52:00;12.00;99.90
25504;DHT22;13410;52.114;5.718;2023-12-22T08:54:27;12.00;99.90
25504;DHT22;13410;52.114;5.718;2023-12-22T08:56:52;11.90;99.90
25504;DHT22;13410;52.114;5.718;2023-12-22T08:59:18;11.70;99.90
25504;DHT22;13410;52.114;5.718;2023-12-22T09:01:45;11.70;99.90
25504;DHT22;13410;52.114;5.718;2023-12-22T09:04:11;11.60;99.90
25504;DHT22;13410;52.114;5.718;2023-12-22T09:06:36;11.50;99.90
25504;DHT22;13410;52.114;5.718;2023-12-22T09:09:02;11.30;99.90
25504;DHT22;13410;52.114;5.718;2023-12-22T09:11:29;11.40;99.90
25504;DHT22;13410;52.114;5.718;2023-12-22T09:13:54;11.40;99.90
25504;DHT22;13410;52.114;5.718;2023-12-22T09:16:21;11.50;99.90
25504;DHT22;13410;52.114;5.718;2023-12-22T09:18:47;11.60;99.90
25504;DHT22;13410;52.114;5.718;2023-12-22T09:21:13;11.70;99.90
25504;DHT22;13410;52.114;5.718;2023-12-22T09:23:39;11.70;99.90
25504;DHT22;13410;52.114;5.718;2023-12-22T09:26:04;11.90;99.90
25504;DHT22;13410;52.114;5.718;2023-12-22T09:28:30;11.80;99.90
25504;DHT22;13410;52.114;5.718;2023-12-22T09:30:56;11.70;99.90
25504;DHT22;13410;52.114;5.718;2023-12-22T09:33:22;11.70;99.90
25504;DHT22;13410;52.114;5.718;2023-12-22T09:35:50;11.80;99.90
25504;DHT22;13410;52.114;5.718;2023-12-22T09:38:16;11.90;99.90
25504;DHT22;13410;52.114;5.718;2023-12-22T09:40:42;11.90;99.90
25504;DHT22;13410;52.114;5.718;2023-12-22T09:43:14;11.80;99.90
25504;DHT22;13410;52.114;5.718;2023-12-22T09:45:41;11.90;99.90
25504;DHT22;13410;52.114;5.718;2023-12-22T09:48:08;11.80;99.90
25504;DHT22;13410;52.114;5.718;2023-12-22T09:50:34;11.70;99.90
25504;DHT22;13410;52.114;5.718;2023-12-22T09:53:00;11.70;99.90
25504;DHT22;13410;52.114;5.718;2023-12-22T09:55:27;11.50;99.90
25504;DHT22;13410;52.114;5.718;2023-12-22T09:57:54;11.30;99.90
25504;DHT22;13410;52.114;5.718;2023-12-22T10:00:22;10.90;99.90
25504;DHT22;13410;52.114;5.718;2023-12-22T10:02:49;10.60;99.90
25504;DHT22;13410;52.114;5.718;2023-12-22T10:05:15;10.60;99.90
25504;DHT22;13410;52.114;5.718;2023-12-22T10:07:41;10.60;99.90
25504;DHT22;13410;52.114;5.718;2023-12-22T10:10:10;10.60;99.90
25504;DHT22;13410;52.114;5.718;2023-12-22T10:12:38;10.70;99.90
25504;DHT22;13410;52.114;5.718;2023-12-22T10:15:05;10.90;99.90
25504;DHT22;13410;52.114;5.718;2023-12-22T10:17:33;11.00;99.90
25504;DHT22;13410;52.114;5.718;2023-12-22T10:19:59;11.20;99.90
25504;DHT22;13410;52.114;5.718;2023-12-22T10:22:25;11.40;99.90
25504;DHT22;13410;52.114;5.718;2023-12-22T10:24:50;11.50;99.90
25504;DHT22;13410;52.114;5.718;2023-12-22T10:27:17;11.60;99.90
25504;DHT22;13410;52.114;5.718;2023-12-22T10:29:54;11.70;99.90
25504;DHT22;13410;52.114;5.718;2023-12-22T10:32:20;11.90;99.90
25504;DHT22;13410;52.114;5.718;2023-12-22T10:34:47;11.90;99.90
25504;DHT22;13410;52.114;5.718;2023-12-22T10:37:13;11.80;99.90
25504;DHT22;13410;52.114;5.718;2023-12-22T10:39:39;11.80;99.90
25504;DHT22;13410;52.114;5.718;2023-12-22T10:42:05;12.00;99.90
25504;DHT22;13410;52.114;5.718;2023-12-22T10:44:31;12.00;99.90
25504;DHT22;13410;52.114;5.718;2023-12-22T10:46:57;12.00;99.90
25504;DHT22;13410;52.114;5.718;2023-12-22T10:49:24;12.10;99.90
25504;DHT22;13410;52.114;5.718;2023-12-22T10:51:51;12.00;99.90
25504;DHT22;13410;52.114;5.718;2023-12-22T10:54:17;12.00;99.90
25504;DHT22;13410;52.114;5.718;2023-12-22T10:56:43;11.90;99.90
25504;DHT22;13410;52.114;5.718;2023-12-22T10:59:09;11.80;99.90
25504;DHT22;13410;52.114;5.718;2023-12-22T11:01:38;11.70;99.90
25504;DHT22;13410;52.114;5.718;2023-12-22T11:04:13;11.80;99.90
25504;DHT22;13410;52.114;5.718;2023-12-22T11:06:41;11.90;99.90
25504;DHT22;13410;52.114;5.718;2023-12-22T11:09:09;12.00;99.90
25504;DHT22;13410;52.114;5.718;2023-12-22T11:11:37;11.70;99.90
25504;DHT22;13410;52.114;5.718;2023-12-22T11:14:04;11.60;99.90
25504;DHT22;13410;52.114;5.718;2023-12-22T11:16:31;11.60;99.90
25504;DHT22;13410;52.114;5.718;2023-12-22T11:19:02;11.80;99.90
25504;DHT22;13410;52.114;5.718;2023-12-22T11:21:28;11.90;99.90
25504;DHT22;13410;52.114;5.718;2023-12-22T11:23:55;11.90;99.90
25504;DHT22;13410;52.114;5.718;2023-12-22T11:26:23;11.90;99.90
25504;DHT22;13410;52.114;5.718;2023-12-22T11:28:50;12.10;99.90
25504;DHT22;13410;52.114;5.718;2023-12-22T11:31:17;12.20;99.90
25504;DHT22;13410;52.114;5.718;2023-12-22T11:33:52;12.10;99.90
25504;DHT22;13410;52.114;5.718;2023-12-22T11:36:18;12.10;99.90
25504;DHT22;13410;52.114;5.718;2023-12-22T11:38:45;11.80;99.90
25504;DHT22;13410;52.114;5.718;2023-12-22T11:41:20;11.70;99.90
25504;DHT22;13410;52.114;5.718;2023-12-22T11:43:47;11.90;99.90
25504;DHT22;13410;52.114;5.718;2023-12-22T11:46:16;11.80;99.90
25504;DHT22;13410;52.114;5.718;2023-12-22T11:48:49;12.00;99.90
25504;DHT22;13410;52.114;5.718;2023-12-22T11:51:17;12.10;99.90
25504;DHT22;13410;52.114;5.718;2023-12-22T11:53:43;12.20;99.90
25504;DHT22;13410;52.114;5.718;2023-12-22T11:56:10;12.30;99.90
25504;DHT22;13410;52.114;5.718;2023-12-22T11:58:46;12.00;99.90
25504;DHT22;13410;52.114;5.718;2023-12-22T12:01:22;11.70;99.90
25504;DHT22;13410;52.114;5.718;2023-12-22T12:03:50;11.80;99.90
25504;DHT22;13410;52.114;5.718;2023-12-22T12:08:51;12.20;99.90
25504;DHT22;13410;52.114;5.718;2023-12-22T12:11:19;12.40;99.90
25504;DHT22;13410;52.114;5.718;2023-12-22T12:13:46;12.20;99.90
25504;DHT22;13410;52.114;5.718;2023-12-22T12:16:13;11.80;99.90
25504;DHT22;13410;52.114;5.718;2023-12-22T12:18:39;11.70;99.90
25504;DHT22;13410;52.114;5.718;2023-12-22T12:21:10;11.90;99.90
25504;DHT22;13410;52.114;5.718;2023-12-22T12:23:36;11.90;99.90
25504;DHT22;13410;52.114;5.718;2023-12-22T12:26:03;12.00;99.90
25504;DHT22;13410;52.114;5.718;2023-12-22T12:28:31;11.90;99.90
25504;DHT22;13410;52.114;5.718;2023-12-22T12:31:02;11.60;99.90
25504;DHT22;13410;52.114;5.718;2023-12-22T12:33:29;11.50;99.90
25504;DHT22;13410;52.114;5.718;2023-12-22T12:36:02;11.50;99.90
25504;DHT22;13410;52.114;5.718;2023-12-22T12:41:04;11.80;99.90
25504;DHT22;13410;52.114;5.718;2023-12-22T12:43:31;11.70;99.90
25504;DHT22;13410;52.114;5.718;2023-12-22T12:46:04;11.80;99.90
25504;DHT22;13410;52.114;5.718;2023-12-22T12:48:30;11.80;99.90
25504;DHT22;13410;52.114;5.718;2023-12-22T12:50:59;11.90;99.90
25504;DHT22;13410;52.114;5.718;2023-12-22T12:53:25;11.80;99.90
25504;DHT22;13410;52.114;5.718;2023-12-22T12:55:55;11.90;99.90
25504;DHT22;13410;52.114;5.718;2023-12-22T12:58:21;12.10;99.90
25504;DHT22;13410;52.114;5.718;2023-12-22T13:00:47;12.30;99.90
25504;DHT22;13410;52.114;5.718;2023-12-22T13:03:12;12.20;99.90
25504;DHT22;13410;52.114;5.718;2023-12-22T13:05:38;12.20;99.90
25504;DHT22;13410;52.114;5.718;2023-12-22T13:08:08;12.40;99.90
25504;DHT22;13410;52.114;5.718;2023-12-22T13:10:38;12.30;99.90
25504;DHT22;13410;52.114;5.718;2023-12-22T13:13:04;12.10;99.90
25504;DHT22;13410;52.114;5.718;2023-12-22T13:15:31;12.10;99.90
25504;DHT22;13410;52.114;5.718;2023-12-22T13:17:57;12.20;99.90
25504;DHT22;13410;52.114;5.718;2023-12-22T13:20:23;12.30;99.90
25504;DHT22;13410;52.114;5.718;2023-12-22T13:22:49;12.30;99.90
25504;DHT22;13410;52.114;5.718;2023-12-22T13:25:15;12.30;99.90
25504;DHT22;13410;52.114;5.718;2023-12-22T13:27:48;12.20;99.90
25504;DHT22;13410;52.114;5.718;2023-12-22T13:32:58;12.30;99.90
25504;DHT22;13410;52.114;5.718;2023-12-22T13:35:24;12.40;99.90
25504;DHT22;13410;52.114;5.718;2023-12-22T13:37:51;12.60;99.90
25504;DHT22;13410;52.114;5.718;2023-12-22T13:40:17;12.50;99.90
25504;DHT22;13410;52.114;5.718;2023-12-22T13:42:42;12.30;99.90
25504;DHT22;13410;52.114;5.718;2023-12-22T13:45:11;12.40;99.90
25504;DHT22;13410;52.114;5.718;2023-12-22T13:47:42;12.30;99.90
25504;DHT22;13410;52.114;5.718;2023-12-22T13:50:18;12.40;99.90
25504;DHT22;13410;52.114;5.718;2023-12-22T13:52:44;12.40;99.90
25504;DHT22;13410;52.114;5.718;2023-12-22T13:55:14;12.60;99.90
25504;DHT22;13410;52.114;5.718;2023-12-22T13:57:40;12.50;99.90
25504;DHT22;13410;52.114;5.718;2023-12-22T14:02:44;12.40;99.90
25504;DHT22;13410;52.114;5.718;2023-12-22T14:05:10;12.40;99.90
25504;DHT22;13410;52.114;5.718;2023-12-22T14:07:36;12.30;99.90
25504;DHT22;13410;52.114;5.718;2023-12-22T14:10:09;12.10;99.90
25504;DHT22;13410;52.114;5.718;2023-12-22T14:12:35;12.00;99.90
25504;DHT22;13410;52.114;5.718;2023-12-22T14:15:06;12.00;99.90
25504;DHT22;13410;52.114;5.718;2023-12-22T14:17:32;12.00;99.90
25504;DHT22;13410;52.114;5.718;2023-12-22T14:19:58;12.10;99.90
25504;DHT22;13410;52.114;5.718;2023-12-22T14:22:24;12.00;99.90
25504;DHT22;13410;52.114;5.718;2023-12-22T14:24:50;11.80;99.90
25504;DHT22;13410;52.114;5.718;2023-12-22T14:27:15;11.80;99.90
25504;DHT22;13410;52.114;5.718;2023-12-22T14:29:44;11.60;99.90
25504;DHT22;13410;52.114;5.718;2023-12-22T14:32:09;11.30;99.90
25504;DHT22;13410;52.114;5.718;2023-12-22T14:34:36;11.30;99.90
25504;DHT22;13410;52.114;5.718;2023-12-22T14:37:02;11.20;99.90
25504;DHT22;13410;52.114;5.718;2023-12-22T14:39:28;11.30;99.90
25504;DHT22;13410;52.114;5.718;2023-12-22T14:41:53;11.50;99.90
25504;DHT22;13410;52.114;5.718;2023-12-22T14:44:19;11.50;99.90
25504;DHT22;13410;52.114;5.718;2023-12-22T14:46:45;11.60;99.90
25504;DHT22;13410;52.114;5.718;2023-12-22T14:49:11;11.70;99.90
25504;DHT22;13410;52.114;5.718;2023-12-22T14:51:37;11.80;99.90
25504;DHT22;13410;52.114;5.718;2023-12-22T14:54:05;11.80;99.90
25504;DHT22;13410;52.114;5.718;2023-12-22T14:56:31;11.70;99.90
25504;DHT22;13410;52.114;5.718;2023-12-22T14:58:56;11.90;99.90
25504;DHT22;13410;52.114;5.718;2023-12-22T15:01:22;12.00;99.90
25504;DHT22;13410;52.114;5.718;2023-12-22T15:03:48;12.10;99.90
25504;DHT22;13410;52.114;5.718;2023-12-22T15:06:13;12.10;99.90
25504;DHT22;13410;52.114;5.718;2023-12-22T15:08:39;12.10;99.90
25504;DHT22;13410;52.114;5.718;2023-12-22T15:11:05;12.00;99.90
25504;DHT22;13410;52.114;5.718;2023-12-22T15:13:31;12.10;99.90
25504;DHT22;13410;52.114;5.718;2023-12-22T15:15:57;12.00;99.90
25504;DHT22;13410;52.114;5.718;2023-12-22T15:18:23;12.00;99.90
25504;DHT22;13410;52.114;5.718;2023-12-22T15:20:48;11.90;99.90
25504;DHT22;13410;52.114;5.718;2023-12-22T15:23:16;11.90;99.90
25504;DHT22;13410;52.114;5.718;2023-12-22T15:25:42;12.10;99.90
25504;DHT22;13410;52.114;5.718;2023-12-22T15:28:08;12.30;99.90
25504;DHT22;13410;52.114;5.718;2023-12-22T15:30:34;12.30;99.90
25504;DHT22;13410;52.114;5.718;2023-12-22T15:32:59;12.20;99.90
25504;DHT22;13410;52.114;5.718;2023-12-22T15:35:25;12.20;99.90
25504;DHT22;13410;52.114;5.718;2023-12-22T15:37:50;12.30;99.90
25504;DHT22;13410;52.114;5.718;2023-12-22T15:40:17;12.30;99.90
25504;DHT22;13410;52.114;5.718;2023-12-22T15:42:42;12.30;99.90
25504;DHT22;13410;52.114;5.718;2023-12-22T15:45:09;12.40;99.90
25504;DHT22;13410;52.114;5.718;2023-12-22T15:47:35;12.30;99.90
25504;DHT22;13410;52.114;5.718;2023-12-22T15:50:00;12.30;99.90
25504;DHT22;13410;52.114;5.718;2023-12-22T15:52:26;12.10;99.90